createdAt,value
2018-08-09T00:00:10.668Z,26.65
2018-08-09T00:02:38.942Z,26.70
2018-08-09T00:05:08.614Z,26.49
2018-08-09T00:07:36.841Z,26.37
2018-08-09T00:10:05.780Z,26.40
2018-08-09T00:12:34.058Z,26.39
2018-08-09T00:15:02.400Z,26.13
2018-08-09T00:17:30.648Z,26.09
2018-08-09T00:19:59.022Z,26.18
2018-08-09T00:22:27.407Z,26.20
2018-08-09T00:25:04.244Z,26.14
2018-08-09T00:27:34.129Z,26.20
2018-08-09T00:30:03.775Z,26.20
2018-08-09T00:32:33.571Z,26.12
2018-08-09T00:35:01.826Z,26.02
2018-08-09T00:37:30.423Z,26.14
2018-08-09T00:39:58.871Z,26.21
2018-08-09T00:42:27.309Z,26.30
2018-08-09T00:44:55.607Z,26.33
2018-08-09T00:47:24.474Z,26.30
2018-08-09T00:49:53.014Z,26.27
2018-08-09T00:52:21.417Z,26.27
2018-08-09T00:54:50.235Z,26.24
2018-08-09T00:57:18.637Z,26.26
2018-08-09T00:59:47.263Z,26.23
2018-08-09T01:02:16.460Z,26.30
2018-08-09T01:04:45.685Z,26.16
2018-08-09T01:07:14.094Z,26.22
2018-08-09T01:09:42.320Z,26.14
2018-08-09T01:12:11.681Z,26.07
2018-08-09T01:14:40.435Z,26.04
2018-08-09T01:17:08.945Z,25.83
2018-08-09T01:19:37.446Z,25.83
2018-08-09T01:22:06.188Z,25.75
2018-08-09T01:24:34.445Z,25.58
2018-08-09T01:27:02.705Z,25.45
2018-08-09T01:29:32.988Z,25.18
2018-08-09T01:32:01.588Z,25.11
2018-08-09T01:34:30.228Z,25.14
2018-08-09T01:36:58.591Z,25.02
2018-08-09T01:39:27.212Z,24.93
2018-08-09T01:42:07.061Z,24.74
2018-08-09T01:44:35.931Z,24.83
2018-08-09T01:47:04.845Z,24.71
2018-08-09T01:49:33.533Z,24.58
2018-08-09T01:52:04.020Z,24.53
2018-08-09T01:54:32.999Z,24.42
2018-08-09T01:57:01.897Z,24.39
2018-08-09T01:59:31.391Z,24.46
2018-08-09T02:01:59.825Z,24.46
2018-08-09T02:04:29.543Z,24.19
2018-08-09T02:06:58.541Z,24.23
2018-08-09T02:09:32.099Z,24.18
2018-08-09T02:12:00.795Z,24.05
2018-08-09T02:14:29.445Z,23.90
2018-08-09T02:16:57.783Z,23.98
2018-08-09T02:19:26.815Z,23.97
2018-08-09T02:21:55.357Z,23.99
2018-08-09T02:24:23.786Z,23.94
2018-08-09T02:26:52.047Z,23.97
2018-08-09T02:29:20.393Z,23.89
2018-08-09T02:31:48.777Z,23.78
2018-08-09T02:34:17.185Z,23.79
2018-08-09T02:36:45.461Z,23.67
2018-08-09T02:39:13.742Z,23.65
2018-08-09T02:41:42.039Z,23.80
2018-08-09T02:44:10.862Z,23.74
2018-08-09T02:46:39.355Z,23.68
2018-08-09T02:49:08.035Z,23.65
2018-08-09T02:51:36.605Z,23.63
2018-08-09T02:54:05.024Z,23.57
2018-08-09T02:56:37.531Z,23.47
2018-08-09T02:59:09.681Z,23.49
2018-08-09T03:01:44.548Z,23.58
2018-08-09T03:04:13.216Z,23.44
2018-08-09T03:06:42.205Z,23.40
2018-08-09T03:09:14.136Z,23.38
2018-08-09T03:11:44.187Z,23.38
2018-08-09T03:14:13.147Z,23.37
2018-08-09T03:16:41.427Z,23.36
2018-08-09T03:19:09.701Z,23.27
2018-08-09T03:21:38.020Z,23.21
2018-08-09T03:24:06.395Z,23.26
2018-08-09T03:26:34.732Z,23.12
2018-08-09T03:29:02.957Z,23.16
2018-08-09T03:31:31.477Z,23.17
2018-08-09T03:33:59.767Z,23.26
2018-08-09T03:36:27.964Z,23.11
2018-08-09T03:38:56.259Z,23.13
2018-08-09T03:41:29.193Z,23.13
2018-08-09T03:43:57.497Z,23.21
2018-08-09T03:46:27.087Z,23.15
2018-08-09T03:48:55.894Z,23.03
2018-08-09T03:51:25.073Z,22.99
2018-08-09T03:53:53.495Z,23.11
2018-08-09T03:56:22.955Z,23.19
2018-08-09T03:58:51.671Z,23.24
2018-08-09T04:01:19.925Z,23.22
2018-08-09T04:03:48.311Z,23.19
2018-08-09T04:06:16.641Z,23.19
2018-08-09T04:08:44.947Z,23.02
2018-08-09T04:11:13.205Z,23.08
2018-08-09T04:13:41.415Z,23.03
2018-08-09T04:16:09.683Z,23.02
2018-08-09T04:18:37.955Z,22.90
2018-08-09T04:21:06.327Z,22.95
2018-08-09T04:23:34.623Z,22.86
2018-08-09T04:26:02.873Z,22.79
2018-08-09T04:28:31.155Z,22.90
2018-08-09T04:31:03.365Z,22.94
2018-08-09T04:33:31.641Z,23.09
2018-08-09T04:36:00.693Z,23.21
2018-08-09T04:38:29.085Z,23.03
2018-08-09T04:40:57.500Z,23.04
2018-08-09T04:43:25.831Z,23.07
2018-08-09T04:45:54.162Z,23.11
2018-08-09T04:48:22.610Z,23.13
2018-08-09T04:50:50.956Z,23.08
2018-08-09T04:53:19.801Z,23.24
2018-08-09T04:55:48.442Z,23.38
2018-08-09T04:58:17.186Z,23.31
2018-08-09T05:00:52.520Z,23.24
2018-08-09T05:03:21.613Z,23.24
2018-08-09T05:05:50.686Z,23.28
2018-08-09T05:08:22.461Z,23.31
2018-08-09T05:10:50.909Z,23.23
2018-08-09T05:13:19.176Z,23.35
2018-08-09T05:15:48.115Z,23.53
2018-08-09T05:18:19.912Z,23.62
2018-08-09T05:20:48.901Z,23.58
2018-08-09T05:23:17.216Z,23.22
2018-08-09T05:25:45.901Z,23.32
2018-08-09T05:28:14.551Z,23.44
2018-08-09T05:30:43.005Z,23.44
2018-08-09T05:33:11.672Z,23.54
2018-08-09T05:35:40.282Z,23.69
2018-08-09T05:38:08.535Z,23.71
2018-08-09T05:40:39.267Z,23.75
2018-08-09T05:43:07.585Z,23.62
2018-08-09T05:45:35.943Z,23.60
2018-08-09T05:48:05.111Z,23.71
2018-08-09T05:50:33.483Z,23.71
2018-08-09T05:53:01.776Z,23.71
2018-08-09T05:55:30.489Z,23.79
2018-08-09T05:58:03.379Z,23.99
2018-08-09T06:00:31.795Z,23.79
2018-08-09T06:05:27.656Z,23.88
2018-08-09T06:07:55.814Z,24.01
2018-08-09T06:10:23.995Z,23.99
2018-08-09T06:12:52.314Z,24.12
2018-08-09T06:15:20.564Z,24.04
2018-08-09T06:17:48.802Z,24.22
2018-08-09T06:20:17.126Z,24.10
2018-08-09T06:22:45.413Z,24.21
2018-08-09T06:25:13.583Z,24.12
2018-08-09T06:27:41.764Z,24.19
2018-08-09T06:30:10.948Z,24.36
2018-08-09T06:32:39.714Z,24.43
2018-08-09T06:35:09.368Z,24.46
2018-08-09T06:37:37.804Z,24.46
2018-08-09T06:40:08.315Z,24.55
2018-08-09T06:42:36.441Z,24.64
2018-08-09T06:45:05.084Z,24.71
2018-08-09T06:47:33.451Z,24.72
2018-08-09T06:50:02.596Z,24.94
2018-08-09T06:52:30.991Z,25.00
2018-08-09T06:54:59.347Z,24.93
2018-08-09T06:57:27.564Z,24.94
2018-08-09T06:59:55.774Z,24.97
2018-08-09T07:02:24.086Z,24.99
2018-08-09T07:04:52.246Z,25.03
2018-08-09T07:07:20.422Z,24.98
2018-08-09T07:09:48.831Z,25.19
2018-08-09T07:12:17.251Z,25.12
2018-08-09T07:14:45.524Z,25.16
2018-08-09T07:17:13.686Z,25.12
2018-08-09T07:19:41.873Z,25.31
2018-08-09T07:22:10.175Z,25.31
2018-08-09T07:24:38.464Z,25.48
2018-08-09T07:27:06.655Z,25.59
2018-08-09T07:29:34.985Z,25.74
2018-08-09T07:32:03.225Z,25.78
2018-08-09T07:34:31.504Z,25.87
2018-08-09T07:36:59.650Z,25.85
2018-08-09T07:39:28.004Z,25.89
2018-08-09T07:41:56.184Z,26.00
2018-08-09T07:44:24.348Z,25.98
2018-08-09T07:46:52.550Z,26.08
2018-08-09T07:49:20.773Z,25.96
2018-08-09T07:51:48.962Z,25.87
2018-08-09T07:54:17.219Z,25.89
2018-08-09T07:56:45.440Z,26.12
2018-08-09T07:59:13.840Z,26.27
2018-08-09T08:01:42.123Z,26.26
2018-08-09T08:04:10.852Z,26.37
2018-08-09T08:06:38.994Z,26.47
2018-08-09T08:09:09.314Z,26.53
2018-08-09T08:11:37.488Z,26.30
2018-08-09T08:14:05.817Z,26.34
2018-08-09T08:16:34.884Z,26.49
2018-08-09T08:19:04.698Z,26.68
2018-08-09T08:21:33.010Z,26.50
2018-08-09T08:24:01.298Z,26.43
2018-08-09T08:26:29.518Z,26.59
2018-08-09T08:28:57.842Z,26.64
2018-08-09T08:31:26.067Z,26.51
2018-08-09T08:33:54.271Z,26.60
2018-08-09T08:36:22.483Z,26.74
2018-08-09T08:38:50.625Z,26.81
2018-08-09T08:41:18.929Z,27.05
2018-08-09T08:43:47.273Z,27.13
2018-08-09T08:46:15.695Z,27.30
2018-08-09T08:48:44.268Z,27.43
2018-08-09T08:51:12.444Z,27.56
2018-08-09T08:53:40.599Z,27.83
2018-08-09T08:56:08.818Z,27.97
2018-08-09T08:58:37.165Z,27.76
2018-08-09T09:01:05.496Z,27.94
2018-08-09T09:03:33.695Z,28.09
2018-08-09T09:06:02.163Z,28.06
2018-08-09T09:08:30.780Z,28.02
2018-08-09T09:10:58.960Z,27.71
2018-08-09T09:13:27.241Z,27.85
2018-08-09T09:15:55.563Z,27.93
2018-08-09T09:18:23.790Z,28.10
2018-08-09T09:20:52.025Z,27.98
2018-08-09T09:23:20.191Z,28.18
2018-08-09T09:25:48.374Z,28.29
2018-08-09T09:28:16.599Z,28.41
2018-08-09T09:30:44.872Z,28.49
2018-08-09T09:33:13.070Z,28.63
2018-08-09T09:35:41.300Z,28.65
2018-08-09T09:38:09.596Z,28.80
2018-08-09T09:40:37.770Z,28.87
2018-08-09T09:43:06.153Z,28.79
2018-08-09T09:45:34.308Z,28.84
2018-08-09T09:48:03.072Z,28.67
2018-08-09T09:50:31.256Z,28.60
2018-08-09T09:52:59.478Z,28.81
2018-08-09T09:55:28.315Z,28.85
2018-08-09T09:57:56.476Z,29.12
2018-08-09T10:00:29.526Z,29.13
2018-08-09T10:02:57.712Z,29.26
2018-08-09T10:05:25.885Z,29.21
2018-08-09T10:07:54.120Z,29.42
2018-08-09T10:10:22.467Z,29.20
2018-08-09T10:12:50.646Z,29.40
2018-08-09T10:15:18.814Z,29.47
2018-08-09T10:17:47.205Z,29.57
2018-08-09T10:20:15.504Z,29.53
2018-08-09T10:22:43.764Z,29.42
2018-08-09T10:25:12.025Z,29.57
2018-08-09T10:27:40.284Z,29.65
2018-08-09T10:30:09.176Z,29.58
2018-08-09T10:32:37.526Z,29.81
2018-08-09T10:35:06.423Z,29.51
2018-08-09T10:37:34.722Z,29.51
2018-08-09T10:40:03.027Z,29.44
2018-08-09T10:42:31.316Z,29.97
2018-08-09T10:44:59.952Z,30.06
2018-08-09T10:47:28.127Z,29.72
2018-08-09T10:49:56.594Z,29.77
2018-08-09T10:52:24.785Z,30.02
2018-08-09T10:54:53.014Z,29.97
2018-08-09T10:57:21.276Z,30.29
2018-08-09T10:59:49.541Z,30.16
2018-08-09T11:02:17.689Z,30.20
2018-08-09T11:04:46.211Z,30.22
2018-08-09T11:07:14.520Z,30.31
2018-08-09T11:09:42.772Z,30.62
2018-08-09T11:12:11.702Z,30.53
2018-08-09T11:14:39.921Z,30.67
2018-08-09T11:17:08.265Z,30.52
2018-08-09T11:19:36.688Z,30.57
2018-08-09T11:22:04.902Z,30.50
2018-08-09T11:24:33.123Z,30.64
2018-08-09T11:27:01.597Z,30.51
2018-08-09T11:29:29.830Z,30.79
2018-08-09T11:31:58.707Z,30.83
2018-08-09T11:34:26.978Z,31.02
2018-08-09T11:36:55.451Z,31.21
2018-08-09T11:39:23.854Z,31.22
2018-08-09T11:41:52.098Z,31.31
2018-08-09T11:44:20.396Z,31.49
2018-08-09T11:46:48.991Z,31.84
2018-08-09T11:49:17.285Z,31.78
2018-08-09T11:51:45.504Z,31.83
2018-08-09T11:54:13.994Z,31.54
2018-08-09T11:56:42.266Z,31.74
2018-08-09T11:59:10.768Z,31.78
2018-08-09T12:01:39.002Z,31.93
2018-08-09T12:04:07.298Z,32.07
2018-08-09T12:06:35.602Z,32.07
2018-08-09T12:09:04.626Z,32.19
2018-08-09T12:11:32.836Z,32.18
2018-08-09T12:14:01.281Z,32.34
2018-08-09T12:16:29.525Z,32.29
